Time;durP1;ratioP1;P1;durP2;ratioP2;P2;SDS_P1;SDS_P2;PMS_P1;PMS_P2;Temp;Humidity;BMP_temperature;BMP_pressure;BME280_temperature;BME280_humidity;BME280_pressure;Samples;Min_cycle;Max_cycle;Signal;HPM_P1;HPM_P2
2024/04/23 00:00:33;;;;;;;0.80;0.80;;;0.40;99.90;;;;;;4806447;29;20028;-80
2024/04/23 00:02:58;;;;;;;0.80;0.80;;;0.40;99.90;;;;;;4843998;29;20441;-81
2024/04/23 00:05:24;;;;;;;0.80;0.80;;;0.40;99.90;;;;;;4849558;29;20030;-81
2024/04/23 00:07:50;;;;;;;0.88;0.88;;;0.30;99.90;;;;;;4806865;29;20067;-80
2024/04/23 00:10:15;;;;;;;0.80;0.80;;;0.30;99.90;;;;;;4823772;29;20020;-81
2024/04/23 00:12:41;;;;;;;0.88;0.88;;;1.30;99.90;;;;;;4822070;29;20515;-81
2024/04/23 00:15:07;;;;;;;0.80;0.80;;;0.20;99.90;;;;;;4845404;29;20247;-81
2024/04/23 00:17:33;;;;;;;0.70;0.70;;;0.20;99.90;;;;;;4827088;29;20084;-81
2024/04/23 00:19:59;;;;;;;0.85;0.85;;;0.10;99.90;;;;;;4823929;29;20472;-81
2024/04/23 00:22:24;;;;;;;0.80;0.80;;;0.20;99.90;;;;;;4853324;29;20031;-81
2024/04/23 00:24:50;;;;;;;;;;;0.20;99.90;;;;;;4847439;29;20034;-81
2024/04/23 00:27:38;;;;;;;;;;;1.50;99.90;;;;;;4810984;29;20021;-80
2024/04/23 00:30:05;;;;;;;0.70;0.70;;;0.10;99.90;;;;;;4847481;29;19946;-81
2024/04/23 00:32:31;;;;;;;0.80;0.80;;;0.10;99.90;;;;;;4813393;29;20129;-80
2024/04/23 00:34:56;;;;;;;0.80;0.80;;;0.00;99.90;;;;;;4818682;29;20028;-82
2024/04/23 00:37:22;;;;;;;0.70;0.70;;;0.00;99.90;;;;;;4825602;29;20031;-81
2024/04/23 00:39:48;;;;;;;0.75;0.75;;;0.00;99.90;;;;;;4853845;29;20020;-81
2024/04/23 00:42:14;;;;;;;0.68;0.68;;;0.00;99.90;;;;;;4801842;29;20020;-81
2024/04/23 00:44:40;;;;;;;0.88;0.88;;;0.00;99.90;;;;;;4848828;29;20020;-81
2024/04/23 00:47:05;;;;;;;;;;;0.50;99.90;;;;;;4821682;29;20016;-81
2024/04/23 00:49:32;;;;;;;0.70;0.70;;;0.00;99.90;;;;;;4794038;29;19950;-81
2024/04/23 00:51:59;;;;;;;0.70;0.70;;;0.90;99.90;;;;;;4845061;29;20065;-81
2024/04/23 00:54:26;;;;;;;0.77;0.77;;;1.30;99.90;;;;;;4854769;29;20103;-81
2024/04/23 00:56:56;;;;;;;0.70;0.70;;;0.00;99.90;;;;;;4825860;29;20031;-80
2024/04/23 00:59:23;;;;;;;0.70;0.70;;;0.00;99.90;;;;;;4824531;29;20034;-80
2024/04/23 01:01:50;;;;;;;0.60;0.60;;;0.00;99.90;;;;;;4825469;29;20050;-81
2024/04/23 01:04:16;;;;;;;0.98;0.98;;;1.40;99.90;;;;;;4826172;29;20020;-81
2024/04/23 01:06:42;;;;;;;0.80;0.80;;;0.10;99.90;;;;;;4841319;29;20020;-81
2024/04/23 01:09:08;;;;;;;0.80;0.80;;;0.20;99.90;;;;;;4842912;29;20354;-81
2024/04/23 01:11:35;;;;;;;0.75;0.75;;;0.10;99.90;;;;;;4797482;29;20648;-82
2024/04/23 01:14:03;;;;;;;0.80;0.80;;;0.10;99.90;;;;;;4801483;29;20043;-84
2024/04/23 01:16:33;;;;;;;0.70;0.70;;;0.20;99.90;;;;;;4819577;29;20057;-83
2024/04/23 01:19:00;;;;;;;0.80;0.80;;;0.20;99.90;;;;;;4848654;29;20036;-83
2024/04/23 01:21:42;;;;;;;0.70;0.70;;;0.20;99.90;;;;;;4850136;29;20084;-84
2024/04/23 01:24:20;;;;;;;0.63;0.63;;;0.10;99.90;;;;;;4829314;29;20019;-82
2024/04/23 01:27:09;;;;;;;0.80;0.80;;;0.10;99.90;;;;;;4807972;29;20072;-83
2024/04/23 01:29:37;;;;;;;0.90;0.90;;;0.10;99.90;;;;;;4856775;29;20024;-81
2024/04/23 01:32:04;;;;;;;0.80;0.80;;;1.50;99.90;;;;;;4796947;29;20028;-80
2024/04/23 01:34:36;;;;;;;0.60;0.60;;;0.10;99.90;;;;;;4849386;29;20028;-80
2024/04/23 01:37:04;;;;;;;0.70;0.70;;;0.00;99.90;;;;;;4822682;29;20016;-79
2024/04/23 01:39:30;;;;;;;0.70;0.70;;;0.00;99.90;;;;;;4845166;29;20380;-80
2024/04/23 01:41:58;;;;;;;0.70;0.70;;;-0.10;99.90;;;;;;4826424;29;20439;-80
2024/04/23 01:44:26;;;;;;;0.90;0.90;;;-0.10;99.90;;;;;;4854109;29;20529;-79
2024/04/23 01:46:53;;;;;;;0.80;0.80;;;-0.20;99.90;;;;;;4826195;29;20048;-82
2024/04/23 01:49:19;;;;;;;0.75;0.75;;;-0.20;99.90;;;;;;4796250;29;20448;-82
2024/04/23 01:51:44;;;;;;;;;;;-0.20;99.90;;;;;;4845651;29;20477;-83
2024/04/23 01:54:11;;;;;;;0.70;0.70;;;1.30;99.90;;;;;;4850236;29;19934;-83
2024/04/23 01:56:37;;;;;;;0.80;0.80;;;-0.10;99.90;;;;;;4797003;29;20424;-82
2024/04/23 01:59:03;;;;;;;0.80;0.80;;;-0.10;99.90;;;;;;4823456;29;20023;-82
2024/04/23 02:01:30;;;;;;;0.70;0.70;;;-0.10;99.90;;;;;;4847643;29;20044;-82
2024/04/23 02:03:56;;;;;;;0.70;0.70;;;0.00;99.90;;;;;;4855363;29;20030;-81
2024/04/23 02:06:22;;;;;;;;;;;0.00;99.90;;;;;;4800124;29;20020;-81
2024/04/23 02:08:49;;;;;;;0.90;0.90;;;1.50;99.90;;;;;;4849103;29;19940;-82
2024/04/23 02:11:16;;;;;;;0.70;0.70;;;0.00;99.90;;;;;;4821735;29;20020;-81
2024/04/23 02:13:41;;;;;;;0.70;0.70;;;0.00;99.90;;;;;;4853409;29;20102;-82
2024/04/23 02:16:07;;;;;;;;;;;1.60;99.90;;;;;;4851767;29;20072;-80
2024/04/23 02:18:33;;;;;;;0.80;0.80;;;0.00;99.90;;;;;;4828567;29;19934;-80
2024/04/23 02:20:59;;;;;;;0.60;0.60;;;0.00;99.90;;;;;;4849901;29;20043;-81
2024/04/23 02:23:25;;;;;;;0.80;0.80;;;0.10;99.90;;;;;;4834825;29;20020;-83
2024/04/23 02:25:51;;;;;;;0.63;0.63;;;0.00;99.90;;;;;;4866382;29;20034;-84
2024/04/23 02:28:16;;;;;;;;;;;0.50;99.90;;;;;;4833702;29;20020;-82
2024/04/23 02:30:42;;;;;;;0.80;0.80;;;0.10;99.90;;;;;;4845633;29;19934;-83
2024/04/23 02:33:11;;;;;;;;;;;0.10;99.90;;;;;;4774540;29;20817;-81
2024/04/23 02:35:38;;;;;;;0.70;0.70;;;0.10;99.90;;;;;;4853145;29;20274;-82
2024/04/23 02:38:04;;;;;;;0.80;0.80;;;0.10;99.90;;;;;;4824619;29;20036;-82
2024/04/23 02:40:30;;;;;;;0.75;0.75;;;0.10;99.90;;;;;;4795431;29;20028;-83
2024/04/23 02:42:56;;;;;;;;;;;0.20;99.90;;;;;;4830263;29;20024;-82
2024/04/23 02:45:21;;;;;;;0.70;0.70;;;0.30;99.90;;;;;;4820914;29;19935;-82
2024/04/23 02:47:47;;;;;;;;;;;0.30;99.90;;;;;;4794209;29;20024;-81
2024/04/23 02:50:13;;;;;;;0.70;0.70;;;0.30;99.90;;;;;;4801058;29;19946;-81
2024/04/23 02:52:39;;;;;;;;;;;0.30;99.90;;;;;;4791365;29;20021;-81
2024/04/23 02:55:08;;;;;;;0.80;0.80;;;1.60;99.90;;;;;;4798342;29;19941;-80
2024/04/23 02:57:34;;;;;;;0.80;0.80;;;0.40;99.90;;;;;;4774538;29;20104;-81
2024/04/23 02:59:59;;;;;;;0.80;0.80;;;0.40;99.90;;;;;;4800452;29;20033;-81
2024/04/23 03:02:25;;;;;;;0.70;0.70;;;0.40;99.90;;;;;;4817076;29;20316;-81
2024/04/23 03:04:51;;;;;;;0.70;0.70;;;0.40;99.90;;;;;;4815207;29;20081;-80
2024/04/23 03:07:17;;;;;;;0.80;0.80;;;0.40;99.90;;;;;;4799139;29;20033;-81
2024/04/23 03:10:03;;;;;;;0.60;0.60;;;0.30;99.90;;;;;;4776902;29;20016;-81
2024/04/23 03:12:28;;;;;;;0.80;0.80;;;0.40;99.90;;;;;;4792325;29;20020;-81
2024/04/23 03:14:54;;;;;;;;;;;0.50;99.90;;;;;;4826084;29;20031;-83
2024/04/23 03:17:20;;;;;;;0.80;0.80;;;0.50;99.90;;;;;;4831975;29;19947;-84
2024/04/23 03:20:06;;;;;;;0.80;0.80;;;0.50;99.90;;;;;;4769026;29;20141;-84
2024/04/23 03:22:39;;;;;;;0.70;0.70;;;0.60;99.90;;;;;;4822788;29;20048;-83
2024/04/23 03:25:06;;;;;;;0.60;0.60;;;1.40;99.90;;;;;;4777039;29;20028;-84
2024/04/23 03:27:32;;;;;;;0.80;0.80;;;1.50;99.90;;;;;;4830199;29;20713;-84
2024/04/23 03:29:58;;;;;;;;;;;1.30;99.90;;;;;;4796735;29;20017;-85
2024/04/23 03:32:23;;;;;;;0.60;0.60;;;0.60;99.90;;;;;;4824682;29;19941;-85
2024/04/23 03:34:49;;;;;;;0.70;0.70;;;0.60;99.90;;;;;;4831253;29;20032;-86
2024/04/23 03:37:15;;;;;;;0.80;0.80;;;0.60;99.90;;;;;;4798380;29;20035;-81
2024/04/23 03:40:01;;;;;;;0.80;0.80;;;1.70;99.90;;;;;;4763819;29;20025;-82
2024/04/23 03:42:26;;;;;;;0.70;0.70;;;0.60;99.90;;;;;;4770392;29;20032;-86
2024/04/23 03:44:52;;;;;;;;;;;0.60;99.90;;;;;;4819379;29;20021;-86
2024/04/23 03:47:18;;;;;;;0.70;0.70;;;0.70;99.90;;;;;;4825159;29;19942;-83
2024/04/23 03:50:04;;;;;;;0.70;0.70;;;2.20;99.90;;;;;;4759531;29;20032;-84
2024/04/23 03:52:30;;;;;;;0.70;0.70;;;0.80;99.90;;;;;;4795331;29;20112;-83
2024/04/23 03:55:01;;;;;;;0.70;0.70;;;0.80;99.90;;;;;;4789312;29;20040;-85
2024/04/23 03:57:29;;;;;;;0.60;0.60;;;1.70;99.90;;;;;;4820429;29;20020;-85
2024/04/23 04:00:15;;;;;;;0.70;0.70;;;2.50;99.90;;;;;;4781414;29;20031;-85
2024/04/23 04:08:21;;;;;;;0.80;0.80;;;1.00;99.90;;;;;;4828372;29;20158;-84
2024/04/23 04:11:07;;;;;;;0.80;0.80;;;1.00;99.90;;;;;;4800558;29;20024;-83
2024/04/23 04:13:33;;;;;;;;;;;1.90;99.90;;;;;;4795857;29;20907;-84
2024/04/23 04:15:59;;;;;;;0.65;0.65;;;1.10;99.90;;;;;;4823262;29;19942;-81
2024/04/23 04:18:45;;;;;;;0.70;0.70;;;1.10;99.90;;;;;;4795156;29;20017;-85
2024/04/23 04:21:11;;;;;;;0.80;0.80;;;1.10;99.90;;;;;;4798714;29;20032;-86
2024/04/23 04:23:37;;;;;;;0.80;0.80;;;1.10;99.90;;;;;;4797492;29;20043;-85
2024/04/23 04:26:03;;;;;;;0.70;0.70;;;2.50;99.90;;;;;;4773865;29;20432;-82
2024/04/23 04:28:29;;;;;;;0.80;0.80;;;1.10;99.90;;;;;;4803463;29;20032;-81
2024/04/23 04:30:55;;;;;;;0.70;0.70;;;1.10;99.90;;;;;;4825555;29;20054;-81
2024/04/23 04:33:21;;;;;;;0.63;0.63;;;1.10;99.90;;;;;;4796349;29;20478;-81
2024/04/23 04:35:47;;;;;;;0.77;0.77;;;2.60;99.90;;;;;;4798232;29;20020;-80
2024/04/23 04:38:13;;;;;;;0.60;0.60;;;2.50;99.90;;;;;;4795514;29;20021;-82
2024/04/23 04:40:39;;;;;;;0.70;0.70;;;1.00;99.90;;;;;;4825636;29;20028;-81
2024/04/23 04:43:05;;;;;;;0.80;0.80;;;1.10;99.90;;;;;;4822800;29;20445;-81
2024/04/23 04:45:31;;;;;;;0.70;0.70;;;2.30;99.90;;;;;;4801665;29;20031;-80
2024/04/23 04:47:57;;;;;;;0.70;0.70;;;1.10;99.90;;;;;;4817960;29;20069;-81
2024/04/23 04:50:23;;;;;;;0.73;0.73;;;2.70;99.90;;;;;;4808541;29;20016;-81
2024/04/23 04:52:49;;;;;;;0.77;0.77;;;2.70;99.90;;;;;;4809278;29;20025;-81
2024/04/23 04:55:14;;;;;;;0.73;0.73;;;1.00;99.90;;;;;;4824019;29;20058;-83
2024/04/23 04:57:41;;;;;;;0.47;0.47;;;1.10;99.90;;;;;;4777652;29;20032;-83
2024/04/23 05:00:07;;;;;;;0.70;0.70;;;1.30;99.90;;;;;;4834445;29;20020;-84
2024/04/23 05:02:33;;;;;;;0.70;0.70;;;1.30;99.90;;;;;;4832740;29;20031;-82
2024/04/23 05:04:59;;;;;;;0.80;0.80;;;3.10;99.90;;;;;;4798876;29;20020;-81
2024/04/23 05:07:25;;;;;;;1.17;1.08;;;1.40;99.90;;;;;;4815304;29;20013;-83
2024/04/23 05:09:51;;;;;;;;;;;1.80;99.90;;;;;;4800858;29;20017;-85
2024/04/23 05:12:17;;;;;;;0.63;0.63;;;2.80;99.90;;;;;;4799210;29;19943;-83
2024/04/23 05:14:44;;;;;;;0.70;0.70;;;3.20;99.90;;;;;;4797901;29;20017;-83
2024/04/23 05:17:10;;;;;;;;;;;1.80;99.90;;;;;;4800929;29;20024;-83
2024/04/23 05:19:35;;;;;;;0.70;0.70;;;3.30;99.90;;;;;;4820630;29;19935;-84
2024/04/23 05:22:02;;;;;;;0.70;0.70;;;3.00;99.90;;;;;;4780376;29;20032;-83
2024/04/23 05:24:27;;;;;;;;;;;3.20;99.90;;;;;;4785819;29;20029;-83
2024/04/23 05:26:53;;;;;;;0.60;0.60;;;3.80;99.90;;;;;;4779348;29;19945;-80
2024/04/23 05:29:19;;;;;;;0.60;0.60;;;3.50;99.90;;;;;;4821051;29;20021;-81
2024/04/23 05:34:30;;;;;;;0.63;0.63;;;3.30;99.90;;;;;;4824792;29;20039;-84
2024/04/23 05:36:56;;;;;;;0.70;0.70;;;2.20;99.90;;;;;;4828124;29;20032;-85
2024/04/23 05:39:22;;;;;;;0.60;0.60;;;2.20;99.90;;;;;;4845957;29;20064;-83
2024/04/23 05:41:48;;;;;;;;;;;2.30;99.90;;;;;;4832219;29;20512;-83
2024/04/23 05:44:14;;;;;;;0.80;0.80;;;3.80;99.90;;;;;;4808337;29;20011;-82
2024/04/23 05:46:40;;;;;;;0.70;0.70;;;2.40;99.90;;;;;;4827132;29;20031;-81
2024/04/23 05:49:43;;;;;;;1.02;1.02;;;4.20;99.90;;;;;;4825208;29;20019;-83
2024/04/23 05:52:47;;;;;;;0.75;0.75;;;2.50;99.90;;;;;;4826271;29;20024;-82
2024/04/23 05:55:33;;;;;;;0.70;0.70;;;2.50;99.90;;;;;;4848609;29;20024;-83
2024/04/23 05:58:03;;;;;;;0.68;0.68;;;3.90;99.90;;;;;;4824081;29;20012;-83
2024/04/23 06:00:30;;;;;;;0.60;0.60;;;2.70;99.90;;;;;;4800857;29;20024;-83
2024/04/23 06:02:56;;;;;;;0.52;0.52;;;4.10;99.90;;;;;;4800317;29;20031;-81
2024/04/23 06:05:23;;;;;;;;;;;3.70;99.90;;;;;;4801884;29;20032;-82
2024/04/23 06:07:49;;;;;;;0.60;0.60;;;3.40;99.90;;;;;;4824843;29;19954;-82
2024/04/23 06:10:15;;;;;;;;;;;4.30;99.90;;;;;;4851974;29;20016;-81
2024/04/23 06:12:41;;;;;;;0.60;0.60;;;3.10;99.90;;;;;;4851488;29;20406;-82
2024/04/23 06:15:07;;;;;;;0.60;0.60;;;3.20;99.90;;;;;;4848475;29;20020;-83
2024/04/23 06:17:36;;;;;;;;;;;3.30;99.90;;;;;;4850137;29;20333;-82
2024/04/23 06:20:03;;;;;;;0.60;0.60;;;4.00;99.90;;;;;;4824539;29;19946;-82
2024/04/23 06:22:35;;;;;;;0.70;0.70;;;3.50;99.90;;;;;;4848072;29;20036;-81
2024/04/23 06:25:03;;;;;;;1.00;0.93;;;3.70;99.90;;;;;;4847997;29;20017;-83
2024/04/23 06:27:31;;;;;;;0.70;0.70;;;3.80;99.90;;;;;;4805878;29;20035;-82
2024/04/23 06:30:04;;;;;;;0.55;0.55;;;4.00;99.90;;;;;;4821903;29;20100;-81
2024/04/23 06:32:30;;;;;;;0.60;0.60;;;4.10;99.90;;;;;;4854111;29;20020;-88
2024/04/23 06:34:55;;;;;;;0.50;0.50;;;5.50;99.90;;;;;;4801653;29;20027;-82
2024/04/23 06:37:21;;;;;;;0.73;0.73;;;4.30;99.90;;;;;;4845468;29;20009;-83
2024/04/23 06:39:47;;;;;;;0.65;0.65;;;4.50;99.90;;;;;;4816142;29;20048;-78
2024/04/23 06:42:13;;;;;;;0.50;0.50;;;4.60;99.90;;;;;;4848024;29;20076;-81
2024/04/23 06:44:39;;;;;;;6.88;2.10;;;4.70;99.90;;;;;;4801126;29;20038;-85
2024/04/23 06:47:04;;;;;;;0.60;0.60;;;4.80;99.90;;;;;;4825327;29;20020;-78
2024/04/23 06:49:31;;;;;;;0.70;0.70;;;4.90;99.90;;;;;;4848786;29;20027;-79
2024/04/23 06:51:56;;;;;;;;;;;5.00;99.90;;;;;;4824224;29;20020;-82
2024/04/23 06:54:22;;;;;;;0.57;0.57;;;5.10;99.90;;;;;;4827698;29;19954;-81
2024/04/23 06:56:49;;;;;;;;;;;5.20;99.90;;;;;;4851691;29;20494;-79
2024/04/23 06:59:16;;;;;;;2.28;1.30;;;5.30;99.90;;;;;;4845166;29;19946;-79
2024/04/23 07:01:42;;;;;;;;;;;5.40;99.90;;;;;;4855241;29;20102;-78
2024/04/23 07:04:08;;;;;;;0.60;0.60;;;5.40;99.90;;;;;;4819520;29;19935;-79
2024/04/23 07:06:36;;;;;;;;;;;5.80;99.90;;;;;;4844462;29;20020;-79
2024/04/23 07:09:06;;;;;;;0.60;0.60;;;5.60;99.90;;;;;;4847139;29;19946;-78
2024/04/23 07:11:32;;;;;;;0.90;0.90;;;5.60;99.90;;;;;;4843035;29;20107;-80
2024/04/23 07:13:58;;;;;;;0.57;0.57;;;5.70;99.90;;;;;;4837916;29;20036;-81
2024/04/23 07:16:25;;;;;;;0.70;0.70;;;5.80;99.90;;;;;;4828055;29;20031;-79
2024/04/23 07:18:51;;;;;;;0.57;0.57;;;5.90;99.90;;;;;;4848064;29;20304;-78
2024/04/23 07:21:17;;;;;;;0.50;0.50;;;6.00;99.90;;;;;;4821363;29;20087;-78
2024/04/23 07:23:43;;;;;;;0.55;0.55;;;6.00;99.90;;;;;;4825528;29;20031;-79
2024/04/23 07:26:09;;;;;;;0.80;0.80;;;6.10;99.90;;;;;;4853695;29;20020;-79
2024/04/23 07:28:35;;;;;;;0.60;0.60;;;6.20;99.90;;;;;;4824007;29;20019;-80
2024/04/23 07:31:06;;;;;;;0.60;0.60;;;6.70;99.90;;;;;;4800256;29;20023;-78
2024/04/23 07:33:32;;;;;;;0.50;0.50;;;6.40;99.90;;;;;;4854707;29;20055;-80
2024/04/23 07:35:58;;;;;;;0.57;0.57;;;6.50;99.90;;;;;;4851175;29;20016;-82
2024/04/23 07:38:24;;;;;;;0.60;0.60;;;6.50;99.90;;;;;;4847858;29;20464;-81
2024/04/23 07:40:50;;;;;;;1.48;0.65;;;6.40;99.90;;;;;;4853988;29;20020;-80
2024/04/23 07:43:16;;;;;;;0.70;0.70;;;6.50;99.90;;;;;;4855504;29;20027;-79
2024/04/23 07:45:42;;;;;;;0.70;0.70;;;6.50;99.90;;;;;;4851369;29;20132;-79
2024/04/23 07:48:08;;;;;;;0.70;0.70;;;6.60;99.90;;;;;;4852574;29;20015;-80
2024/04/23 07:50:33;;;;;;;1.30;1.30;;;6.60;99.90;;;;;;4805173;29;20016;-79
2024/04/23 07:53:06;;;;;;;0.65;0.65;;;6.70;99.90;;;;;;4851641;29;20031;-81
2024/04/23 07:55:32;;;;;;;0.73;0.73;;;6.80;99.90;;;;;;4853657;29;20135;-81
2024/04/23 07:57:58;;;;;;;0.68;0.68;;;6.80;99.90;;;;;;4853102;29;20380;-80
2024/04/23 08:00:27;;;;;;;0.65;0.65;;;6.90;99.90;;;;;;4849915;29;20019;-81
2024/04/23 08:02:54;;;;;;;0.65;0.65;;;7.20;99.90;;;;;;4825114;29;20036;-80
2024/04/23 08:05:20;;;;;;;0.70;0.70;;;6.90;99.90;;;;;;4854950;29;20038;-79
2024/04/23 08:07:46;;;;;;;0.65;0.65;;;7.00;99.90;;;;;;4852467;29;20424;-82
2024/04/23 08:10:18;;;;;;;1.02;1.02;;;7.00;99.90;;;;;;4853568;29;20024;-79
2024/04/23 08:12:45;;;;;;;0.60;0.60;;;7.10;99.90;;;;;;4854616;29;20034;-80
2024/04/23 08:15:12;;;;;;;0.50;0.50;;;7.10;99.90;;;;;;4851492;29;20050;-80
2024/04/23 08:17:38;;;;;;;0.60;0.60;;;7.20;99.90;;;;;;4860962;29;20020;-80
2024/04/23 08:20:04;;;;;;;0.60;0.60;;;7.30;99.90;;;;;;4821807;29;20024;-80
2024/04/23 08:22:30;;;;;;;0.55;0.55;;;7.30;99.90;;;;;;4853304;29;20020;-80
2024/04/23 08:24:56;;;;;;;0.50;0.50;;;7.50;99.90;;;;;;4845928;29;20020;-81
2024/04/23 08:27:22;;;;;;;0.50;0.50;;;7.10;99.90;;;;;;4825786;29;20028;-80
2024/04/23 08:29:48;;;;;;;0.60;0.60;;;6.90;99.90;;;;;;4823500;29;20028;-79
2024/04/23 08:32:14;;;;;;;0.50;0.50;;;6.80;99.90;;;;;;4798772;29;20036;-81
2024/04/23 08:34:40;;;;;;;0.80;0.80;;;6.90;99.90;;;;;;4846563;29;20040;-80
2024/04/23 08:37:07;;;;;;;0.60;0.60;;;7.00;99.90;;;;;;4855710;29;20094;-80
2024/04/23 08:39:33;;;;;;;0.57;0.57;;;7.20;99.90;;;;;;4846934;29;20060;-81
2024/04/23 08:42:01;;;;;;;0.55;0.55;;;7.40;99.90;;;;;;4844802;29;20020;-79
2024/04/23 08:44:30;;;;;;;0.55;0.55;;;7.50;99.90;;;;;;4848665;29;20060;-80
2024/04/23 08:46:56;;;;;;;0.50;0.50;;;7.50;99.90;;;;;;4849313;29;20036;-79
2024/04/23 08:49:24;;;;;;;1.58;0.80;;;7.60;99.90;;;;;;4844430;29;20020;-78
2024/04/23 08:51:50;;;;;;;0.80;0.80;;;7.70;99.90;;;;;;4849497;29;20020;-79
2024/04/23 08:54:16;;;;;;;0.47;0.47;;;7.80;99.90;;;;;;4848757;29;20472;-79
2024/04/23 08:56:45;;;;;;;0.45;0.45;;;7.90;99.90;;;;;;4847153;29;20028;-81
2024/04/23 08:59:17;;;;;;;0.60;0.60;;;8.00;99.40;;;;;;4851077;29;20047;-79
2024/04/23 09:01:49;;;;;;;0.50;0.50;;;8.10;99.30;;;;;;4846380;29;20031;-78
2024/04/23 09:04:15;;;;;;;0.70;0.70;;;8.20;98.90;;;;;;4824298;29;20047;-81
2024/04/23 09:06:42;;;;;;;2.08;1.88;;;8.30;98.90;;;;;;4847177;29;20031;-80
2024/04/23 09:09:15;;;;;;;0.50;0.50;;;8.40;98.10;;;;;;4846039;29;20016;-80
2024/04/23 09:11:42;;;;;;;0.50;0.50;;;8.40;97.80;;;;;;4849635;29;20024;-79
2024/04/23 09:14:10;;;;;;;1.77;1.67;;;8.50;99.60;;;;;;4826127;29;20020;-79
2024/04/23 09:16:35;;;;;;;0.70;0.70;;;8.70;98.90;;;;;;4852541;29;20052;-80
2024/04/23 09:19:01;;;;;;;0.63;0.63;;;8.80;98.40;;;;;;4845892;29;20052;-80
2024/04/23 09:21:27;;;;;;;0.40;0.40;;;8.90;99.40;;;;;;4849552;29;20028;-81
2024/04/23 09:23:53;;;;;;;0.70;0.70;;;8.90;99.30;;;;;;4831214;29;20020;-81
2024/04/23 09:26:24;;;;;;;0.63;0.63;;;8.80;98.20;;;;;;4844287;29;20027;-79
2024/04/23 09:28:50;;;;;;;0.50;0.50;;;8.90;96.60;;;;;;4845809;29;20035;-79
2024/04/23 09:31:20;;;;;;;0.50;0.50;;;8.90;97.40;;;;;;4823262;29;20488;-80
2024/04/23 09:33:52;;;;;;;0.50;0.50;;;9.00;98.40;;;;;;4817810;29;20028;-79
2024/04/23 09:36:23;;;;;;;0.30;0.30;;;9.20;96.90;;;;;;4838160;29;20485;-79
2024/04/23 09:38:52;;;;;;;0.40;0.40;;;9.20;95.10;;;;;;4843543;29;20477;-79
2024/04/23 09:41:20;;;;;;;0.40;0.40;;;9.00;95.70;;;;;;4851084;29;20020;-80
2024/04/23 09:43:57;;;;;;;2.30;1.05;;;9.00;96.50;;;;;;4831710;29;20031;-78
2024/04/23 09:46:23;;;;;;;0.40;0.40;;;8.90;95.60;;;;;;4834173;29;20512;-78
2024/04/23 09:48:52;;;;;;;;;;;8.90;97.00;;;;;;4851211;29;20028;-79
2024/04/23 09:51:19;;;;;;;0.47;0.47;;;9.00;96.50;;;;;;4836677;29;19953;-80
2024/04/23 09:53:47;;;;;;;0.30;0.30;;;9.10;96.90;;;;;;4849187;29;20020;-80
2024/04/23 09:56:18;;;;;;;0.47;0.47;;;9.20;96.10;;;;;;4825482;29;20034;-79
2024/04/23 09:58:45;;;;;;;0.40;0.40;;;9.10;96.20;;;;;;4832854;29;20020;-79
2024/04/23 10:01:12;;;;;;;2.13;1.65;;;9.00;96.30;;;;;;4822397;29;20115;-79
2024/04/23 10:03:42;;;;;;;0.98;0.98;;;8.80;96.70;;;;;;4847622;29;20016;-79
2024/04/23 10:06:10;;;;;;;1.38;1.02;;;9.20;95.80;;;;;;4820732;29;20020;-79
2024/04/23 10:08:46;;;;;;;0.40;0.40;;;8.80;95.50;;;;;;4852273;29;20031;-79
2024/04/23 10:11:17;;;;;;;0.70;0.70;;;8.60;95.50;;;;;;4859096;29;20016;-80
2024/04/23 10:13:50;;;;;;;1.48;1.38;;;8.50;96.30;;;;;;4837445;29;20589;-78
2024/04/23 10:16:29;;;;;;;0.57;0.57;;;8.40;96.20;;;;;;4845261;29;20031;-79
2024/04/23 10:19:06;;;;;;;0.30;0.30;;;8.60;96.10;;;;;;4858347;29;20020;-79
2024/04/23 10:21:39;;;;;;;0.93;0.93;;;8.90;94.80;;;;;;4852213;29;20028;-78
2024/04/23 10:24:08;;;;;;;0.40;0.40;;;9.20;96.10;;;;;;4849891;29;20028;-78
2024/04/23 10:26:40;;;;;;;0.40;0.40;;;9.50;95.70;;;;;;4854561;29;20084;-79
2024/04/23 10:29:10;;;;;;;0.93;0.88;;;9.80;96.10;;;;;;4827757;29;20103;-80
2024/04/23 10:31:36;;;;;;;0.30;0.30;;;10.10;94.60;;;;;;4855571;29;20028;-81
2024/04/23 10:34:04;;;;;;;1.65;1.60;;;10.20;96.30;;;;;;4828917;29;20016;-79
2024/04/23 10:36:31;;;;;;;4.90;1.48;;;10.20;95.80;;;;;;4831831;29;20017;-80
2024/04/23 10:38:59;;;;;;;0.30;0.30;;;10.30;95.60;;;;;;4823388;29;20019;-78
2024/04/23 10:41:29;;;;;;;0.50;0.50;;;10.40;95.20;;;;;;4807041;29;20383;-78
2024/04/23 10:43:56;;;;;;;0.40;0.40;;;10.30;94.50;;;;;;4827239;29;20020;-80
2024/04/23 10:46:22;;;;;;;0.43;0.43;;;10.30;94.20;;;;;;4855429;29;20050;-81
2024/04/23 10:48:55;;;;;;;0.45;0.45;;;10.30;94.70;;;;;;4830209;29;20028;-80
2024/04/23 10:51:22;;;;;;;0.40;0.40;;;10.50;94.60;;;;;;4841375;29;20023;-80
2024/04/23 10:53:50;;;;;;;0.95;0.93;;;10.40;93.30;;;;;;4857723;29;20021;-81
2024/04/23 10:56:26;;;;;;;0.40;0.40;;;10.40;93.20;;;;;;4818525;29;20019;-80
2024/04/23 10:59:13;;;;;;;0.32;0.32;;;10.40;93.40;;;;;;4802493;29;20356;-80
2024/04/23 11:01:59;;;;;;;0.40;0.40;;;10.40;93.30;;;;;;4843903;29;20431;-80
2024/04/23 11:04:39;;;;;;;0.38;0.38;;;10.30;93.60;;;;;;4853398;29;20015;-79
2024/04/23 11:07:06;;;;;;;0.50;0.50;;;10.00;93.20;;;;;;4847353;29;20095;-80
2024/04/23 11:09:34;;;;;;;0.40;0.40;;;9.80;94.10;;;;;;4849645;29;20019;-81
2024/04/23 11:12:00;;;;;;;0.32;0.32;;;9.80;93.90;;;;;;4847037;29;20020;-80
2024/04/23 11:14:36;;;;;;;1.48;1.38;;;9.90;93.70;;;;;;4821567;29;20422;-82
2024/04/23 11:17:05;;;;;;;0.40;0.40;;;10.40;93.30;;;;;;4828341;29;20019;-82
2024/04/23 11:19:39;;;;;;;0.73;0.73;;;10.20;93.50;;;;;;4821126;29;20264;-80
2024/04/23 11:22:10;;;;;;;0.73;0.73;;;10.20;93.20;;;;;;4823474;29;20587;-80
2024/04/23 11:24:56;;;;;;;0.45;0.45;;;10.20;93.10;;;;;;4825953;29;20409;-82
2024/04/23 11:27:25;;;;;;;0.40;0.40;;;10.20;91.20;;;;;;4842473;29;20034;-80
2024/04/23 11:29:52;;;;;;;0.50;0.50;;;10.20;91.10;;;;;;4846816;29;20072;-80
2024/04/23 11:32:19;;;;;;;0.77;0.77;;;10.20;91.40;;;;;;4824885;29;20235;-79
2024/04/23 11:34:46;;;;;;;0.40;0.40;;;10.30;91.70;;;;;;4839336;29;20460;-80
2024/04/23 11:37:26;;;;;;;0.40;0.40;;;10.40;91.50;;;;;;4848346;29;20022;-80
2024/04/23 11:40:02;;;;;;;0.30;0.30;;;10.40;91.50;;;;;;4816132;29;20556;-81
2024/04/23 11:42:29;;;;;;;0.95;0.95;;;10.50;92.00;;;;;;4846027;29;20035;-79
2024/04/23 11:44:57;;;;;;;0.40;0.40;;;10.40;91.50;;;;;;4842034;29;20231;-79
2024/04/23 11:47:26;;;;;;;0.63;0.63;;;10.30;91.30;;;;;;4822622;29;20095;-79
2024/04/23 11:49:53;;;;;;;0.40;0.40;;;10.40;91.70;;;;;;4840273;29;20024;-80
2024/04/23 11:52:23;;;;;;;0.50;0.50;;;10.50;92.30;;;;;;4801582;29;20080;-79
2024/04/23 11:54:51;;;;;;;0.68;0.55;;;10.70;92.00;;;;;;4842274;29;20021;-82
2024/04/23 11:57:18;;;;;;;0.43;0.43;;;10.90;91.60;;;;;;4846636;29;20020;-81
2024/04/23 11:59:46;;;;;;;0.40;0.40;;;11.20;92.70;;;;;;4816616;29;20020;-80
2024/04/23 12:02:13;;;;;;;0.40;0.40;;;11.40;90.90;;;;;;4797701;29;20098;-82
2024/04/23 12:04:41;;;;;;;0.63;0.63;;;11.40;90.60;;;;;;4820193;29;20016;-80
2024/04/23 12:07:10;;;;;;;0.65;0.65;;;11.30;91.30;;;;;;4845950;29;20020;-77
2024/04/23 12:09:36;;;;;;;0.30;0.30;;;11.10;90.20;;;;;;4848193;29;20019;-80
2024/04/23 12:12:02;;;;;;;0.32;0.32;;;11.00;90.80;;;;;;4816935;29;20020;-80
2024/04/23 12:14:30;;;;;;;0.40;0.40;;;11.10;90.50;;;;;;4818400;29;20109;-79
2024/04/23 12:16:56;;;;;;;0.30;0.30;;;11.50;90.70;;;;;;4840551;29;20390;-80
2024/04/23 12:19:22;;;;;;;0.30;0.30;;;11.40;91.20;;;;;;4795811;29;20016;-82
2024/04/23 12:21:49;;;;;;;0.70;0.70;;;11.50;90.00;;;;;;4820817;29;20103;-80
2024/04/23 12:24:16;;;;;;;0.30;0.30;;;11.50;90.00;;;;;;4812742;29;20021;-80
2024/04/23 12:26:45;;;;;;;0.40;0.40;;;11.50;90.00;;;;;;4846436;29;20020;-80
2024/04/23 12:29:11;;;;;;;1.23;1.23;;;11.60;90.40;;;;;;4843037;29;20020;-79
2024/04/23 12:31:38;;;;;;;0.40;0.40;;;12.00;90.80;;;;;;4795862;29;20024;-79
2024/04/23 12:34:04;;;;;;;0.40;0.40;;;12.20;88.80;;;;;;4818045;29;20605;-81
2024/04/23 12:36:30;;;;;;;0.30;0.30;;;12.20;88.20;;;;;;4844589;29;20029;-82
2024/04/23 12:38:56;;;;;;;0.75;0.75;;;13.20;88.30;;;;;;4847037;29;20028;-82
2024/04/23 12:41:25;;;;;;;0.57;0.57;;;12.50;89.60;;;;;;4845624;29;20094;-83
2024/04/23 12:43:51;;;;;;;0.40;0.40;;;12.90;89.80;;;;;;4845842;29;20020;-82
2024/04/23 12:46:18;;;;;;;0.25;0.25;;;13.10;89.80;;;;;;4844720;29;20031;-84
2024/04/23 12:48:46;;;;;;;0.60;0.60;;;13.10;89.60;;;;;;4845543;29;20035;-83
2024/04/23 12:51:12;;;;;;;0.77;0.77;;;13.10;90.00;;;;;;4844399;29;20464;-80
2024/04/23 12:53:38;;;;;;;0.60;0.60;;;13.10;89.70;;;;;;4847154;29;20107;-82
2024/04/23 12:56:04;;;;;;;0.30;0.30;;;12.80;87.90;;;;;;4824578;29;20023;-83
2024/04/23 12:58:33;;;;;;;1.02;1.02;;;12.50;88.50;;;;;;4843155;29;20020;-81
2024/04/23 13:01:00;;;;;;;0.30;0.30;;;12.30;88.50;;;;;;4818718;29;20034;-83
2024/04/23 13:03:26;;;;;;;0.50;0.50;;;12.10;88.70;;;;;;4820008;29;20028;-82
2024/04/23 13:05:53;;;;;;;0.32;0.32;;;11.90;88.80;;;;;;4818236;29;20030;-82
2024/04/23 13:08:19;;;;;;;0.47;0.47;;;11.60;88.00;;;;;;4791771;29;20026;-79
2024/04/23 13:10:47;;;;;;;0.40;0.40;;;11.50;89.20;;;;;;4825860;29;20354;-82
2024/04/23 13:13:13;;;;;;;1.15;1.15;;;11.40;89.40;;;;;;4846302;29;20121;-81
2024/04/23 13:15:40;;;;;;;;;;;11.40;89.40;;;;;;4845302;29;20025;-83